메인 페이지
METAR-TAF:

METAR-TAF

공항 :

구와하티, 인도

위도: 26-06-22N, 경도: 091-35-09E, 고도: 49m

현재 날씨관측

예보는 28분 전, 06:00시(UTC)에 발표되었습니다.
무풍
온도 24°C
습도 69%
기압 1019 hPa
시정: 4500m
고도 2000ft 상공 구름 조금
연무

METAR: VEGT 140600Z 00000KT 4500 HZ FEW020 24/18 Q1019 NOSIG

시각: 11:58 (06:28 UTC)

예보

예보는 1 시간 28분 전, 05:00시(UTC)에 발표되었습니다.
예보 대상 시간: 14일 06시부터 15일 12시까지 (UTC)
북동6kt
시정: 4000m
고도 2000ft 상공 구름 조금
연무
전환 중
14일 13시부터 14일 15시까지 (UTC)
북북동3kt
시정: 3000m
고도 1800ft 상공 구름 조금
고도 10000ft 상공 구름 보통
박무
전환 중
14일 18시부터 14일 20시까지 (UTC)
kt
시정: 1500m
박무
전환 중
15일 03시부터 15일 05시까지 (UTC)
북동5kt
시정: 3000m
고도 1800ft 상공 구름 조금
박무
전환 중
15일 06시부터 15일 08시까지 (UTC)
시정: 5000m
연무

TAF: VEGT 140500Z 1406/1512 05006KT 4000 HZ FEW020 BECMG 1413/1415 03003KT 3000 BR FEW018 SCT100 BECMG 1418/1420 00000KT 1500 BR BECMG 1503/1505 05005KT 3000 BR FEW018 BECMG 1506/1508 5000 HZ

4,000개 이상의 공항 관측 자료 및 예보 (METAR 및 TAF 보고).

지도상에서 검색 가능한 기상관측소가 노란 점과 빨간 점으로 표시되어 있습니다.

기상관측소 명을 보려면 표시 위로 마우스를 이동하세요.

날씨 관측과 예보를 보려면 클릭하세요.

지도 변경 : 확대하려면 엑스 표시가 있는 녹색 버튼, 축소하려면 빼기 표시가 있는 녹색 버튼, 다음 페이지의 지도를 보려면 녹색 화살표를 클릭하세요.


METAR-TAF: